Time;durP1;ratioP1;P1;durP2;ratioP2;P2;SDS_P1;SDS_P2;PMS_P1;PMS_P2;Temp;Humidity;BMP_temperature;BMP_pressure;BME280_temperature;BME280_humidity;BME280_pressure;Samples;Min_cycle;Max_cycle;Signal;HPM_P1;HPM_P2
2023/08/12 00:01:12;;;;;;;17.27;8.50;;;22.30;99.90;;;;;;4927548;29;20027;-83
2023/08/12 00:03:38;;;;;;;10.68;7.40;;;22.20;99.90;;;;;;4924172;28;20115;-83
2023/08/12 00:06:05;;;;;;;14.63;7.90;;;22.20;99.90;;;;;;4942253;28;20020;-83
2023/08/12 00:08:31;;;;;;;12.98;7.65;;;22.20;99.90;;;;;;4944221;28;20109;-84
2023/08/12 00:10:56;;;;;;;14.70;7.40;;;22.20;99.90;;;;;;4943677;28;20058;-84
2023/08/12 00:13:22;;;;;;;14.27;7.65;;;22.20;99.90;;;;;;4940312;28;20444;-84
2023/08/12 00:15:48;;;;;;;11.55;6.82;;;22.20;99.90;;;;;;4930534;28;20110;-84
2023/08/12 00:18:17;;;;;;;11.77;6.60;;;22.10;99.90;;;;;;4927315;29;20035;-84
2023/08/12 00:20:42;;;;;;;9.40;6.60;;;22.10;99.90;;;;;;4940908;28;20130;-84
2023/08/12 00:23:08;;;;;;;12.13;6.07;;;22.10;99.90;;;;;;4922422;29;20099;-84
2023/08/12 00:25:34;;;;;;;11.05;6.53;;;21.90;99.90;;;;;;4924598;28;20075;-83
2023/08/12 00:27:59;;;;;;;10.45;6.43;;;21.80;99.90;;;;;;4940654;28;20407;-83
2023/08/12 00:30:27;;;;;;;13.75;7.18;;;21.80;99.90;;;;;;4929981;29;20465;-84
2023/08/12 00:32:53;;;;;;;13.27;7.05;;;21.80;99.90;;;;;;4930005;28;20035;-84
2023/08/12 00:35:19;;;;;;;12.52;6.75;;;21.80;99.90;;;;;;4923783;29;20028;-84
2023/08/12 00:37:45;;;;;;;15.15;6.60;;;21.90;99.90;;;;;;4943388;28;20087;-84
2023/08/12 00:40:12;;;;;;;11.48;6.63;;;21.90;99.90;;;;;;4933212;29;20424;-84
2023/08/12 00:42:38;;;;;;;13.93;7.28;;;22.00;99.90;;;;;;4941636;28;20055;-84
2023/08/12 00:45:09;;;;;;;12.73;7.47;;;22.00;99.90;;;;;;4940094;28;20445;-85
2023/08/12 00:47:34;;;;;;;14.65;7.20;;;21.90;99.90;;;;;;4924794;29;20488;-85
2023/08/12 00:50:00;;;;;;;12.88;7.93;;;22.00;99.90;;;;;;4943240;28;20070;-84
2023/08/12 00:52:26;;;;;;;15.85;8.75;;;21.90;99.90;;;;;;4928004;29;20031;-84
2023/08/12 00:54:52;;;;;;;16.88;8.65;;;21.90;99.90;;;;;;4943480;28;20019;-84
2023/08/12 00:57:18;;;;;;;13.80;8.73;;;21.90;99.90;;;;;;4926139;29;20126;-85
2023/08/12 00:59:44;;;;;;;24.45;10.23;;;21.90;99.90;;;;;;4941036;28;20103;-84
2023/08/12 01:02:12;;;;;;;15.82;8.70;;;21.90;99.90;;;;;;4938952;28;20113;-84
2023/08/12 01:04:37;;;;;;;14.40;10.07;;;21.90;99.90;;;;;;4940115;28;20038;-84
2023/08/12 01:07:05;;;;;;;18.10;10.52;;;21.70;99.90;;;;;;4942071;28;20425;-85
2023/08/12 01:09:31;;;;;;;17.35;10.07;;;21.70;99.90;;;;;;4930622;28;20400;-84
2023/08/12 01:12:06;;;;;;;16.48;10.93;;;21.70;99.90;;;;;;4939730;28;20090;-84
2023/08/12 01:14:57;;;;;;;19.10;10.70;;;21.70;99.90;;;;;;4924996;29;20114;-85
2023/08/12 01:17:22;;;;;;;17.42;11.55;;;21.70;99.90;;;;;;4938799;28;20527;-84
2023/08/12 01:19:51;;;;;;;22.15;12.07;;;21.70;99.90;;;;;;4940911;28;20090;-84
2023/08/12 01:22:20;;;;;;;18.30;11.43;;;21.70;99.90;;;;;;4925917;28;20520;-84
2023/08/12 01:24:46;;;;;;;19.23;11.65;;;21.80;99.90;;;;;;4930506;29;20060;-84
2023/08/12 01:27:13;;;;;;;18.25;11.15;;;21.80;99.90;;;;;;4930455;28;20124;-84
2023/08/12 01:29:49;;;;;;;20.17;12.27;;;21.70;99.90;;;;;;4939547;28;20023;-84
2023/08/12 01:32:30;;;;;;;18.98;11.80;;;21.70;99.90;;;;;;4940111;28;20107;-84
2023/08/12 01:35:15;;;;;;;20.42;12.38;;;21.70;99.90;;;;;;4939034;28;20023;-85
2023/08/12 01:37:42;;;;;;;18.25;12.13;;;21.80;99.90;;;;;;4923704;28;20028;-84
2023/08/12 01:40:10;;;;;;;40.47;11.98;;;21.80;99.90;;;;;;4923138;29;20523;-84
2023/08/12 01:42:37;;;;;;;19.95;12.93;;;21.80;99.90;;;;;;4924811;28;20027;-85
2023/08/12 01:45:03;;;;;;;18.38;11.38;;;21.80;99.90;;;;;;4937938;28;20012;-86
2023/08/12 01:47:32;;;;;;;18.20;11.57;;;21.80;99.90;;;;;;4940498;28;20562;-85
2023/08/12 01:49:58;;;;;;;17.20;11.70;;;21.80;99.90;;;;;;4936072;28;20031;-85
2023/08/12 01:52:31;;;;;;;20.92;12.80;;;21.90;99.90;;;;;;4930372;29;20542;-84
2023/08/12 01:54:57;;;;;;;17.70;12.93;;;21.90;99.90;;;;;;4937907;28;20031;-83
2023/08/12 01:57:22;;;;;;;21.92;13.00;;;21.90;99.90;;;;;;4942933;28;20064;-84
2023/08/12 01:59:48;;;;;;;19.77;12.52;;;21.90;99.90;;;;;;4940471;28;20039;-84
2023/08/12 02:02:14;;;;;;;22.58;13.48;;;21.90;99.90;;;;;;4929639;29;20042;-85
2023/08/12 02:04:40;;;;;;;25.17;12.90;;;21.90;99.90;;;;;;4942885;28;20095;-85
2023/08/12 02:07:06;;;;;;;19.23;12.68;;;22.00;99.90;;;;;;4924640;28;20034;-85
2023/08/12 02:09:31;;;;;;;21.55;13.43;;;22.00;99.90;;;;;;4942662;28;20040;-84
2023/08/12 02:11:57;;;;;;;21.20;11.68;;;22.00;99.90;;;;;;4946141;28;20492;-85
2023/08/12 02:14:23;;;;;;;20.85;12.10;;;22.00;99.90;;;;;;4930995;29;20042;-85
2023/08/12 02:16:49;;;;;;;21.73;12.10;;;21.90;99.90;;;;;;4931044;28;20024;-86
2023/08/12 02:19:14;;;;;;;22.08;12.30;;;21.80;99.90;;;;;;4932279;29;20027;-84
2023/08/12 02:21:41;;;;;;;23.08;12.98;;;21.70;99.90;;;;;;4940524;28;20035;-84
2023/08/12 02:24:08;;;;;;;19.33;12.30;;;21.70;99.90;;;;;;4941928;28;20097;-85
2023/08/12 02:26:33;;;;;;;20.85;13.00;;;21.80;99.90;;;;;;4932393;28;20019;-85
2023/08/12 02:28:59;;;;;;;19.48;12.38;;;21.90;99.90;;;;;;4940542;28;20038;-85
2023/08/12 02:31:25;;;;;;;18.70;11.73;;;21.70;99.90;;;;;;4944004;28;20035;-85
2023/08/12 02:33:50;;;;;;;18.15;12.93;;;21.80;99.90;;;;;;4937863;28;20444;-84
2023/08/12 02:36:16;;;;;;;21.02;12.32;;;21.80;99.90;;;;;;4925007;29;20023;-85
2023/08/12 02:38:42;;;;;;;19.73;11.80;;;21.70;99.90;;;;;;4926774;29;20150;-85
2023/08/12 02:41:07;;;;;;;23.10;12.75;;;21.70;99.90;;;;;;4927472;29;20045;-85
2023/08/12 02:43:35;;;;;;;22.85;12.60;;;21.80;99.90;;;;;;4932270;29;20118;-85
2023/08/12 02:46:01;;;;;;;19.05;13.02;;;21.80;99.90;;;;;;4939758;28;20480;-84
2023/08/12 02:48:31;;;;;;;21.00;13.07;;;21.70;99.90;;;;;;4935327;29;20110;-85
2023/08/12 02:50:56;;;;;;;21.67;12.82;;;21.70;99.90;;;;;;4931295;28;20023;-85
2023/08/12 02:53:22;;;;;;;23.02;12.63;;;21.70;99.90;;;;;;4929401;28;20019;-84
2023/08/12 02:55:48;;;;;;;20.48;12.30;;;21.70;99.90;;;;;;4942138;28;20073;-85
2023/08/12 02:58:13;;;;;;;27.60;13.50;;;21.80;99.90;;;;;;4930689;29;20031;-84
2023/08/12 03:00:45;;;;;;;27.83;14.07;;;21.80;99.90;;;;;;4944366;28;20074;-84
2023/08/12 03:03:11;;;;;;;21.03;14.00;;;21.80;99.90;;;;;;4944656;28;20399;-85
2023/08/12 03:05:37;;;;;;;20.73;13.35;;;21.70;99.90;;;;;;4942284;28;20279;-85
2023/08/12 03:08:03;;;;;;;23.70;14.43;;;21.80;99.90;;;;;;4943973;28;20024;-84
2023/08/12 03:10:29;;;;;;;25.45;14.68;;;21.70;99.90;;;;;;4946835;28;20746;-85
2023/08/12 03:12:55;;;;;;;24.38;13.75;;;21.70;99.90;;;;;;4946889;28;20377;-84
2023/08/12 03:15:21;;;;;;;23.73;13.80;;;21.80;99.90;;;;;;4942461;28;20019;-85
2023/08/12 03:17:46;;;;;;;23.92;14.38;;;21.80;99.90;;;;;;4931182;29;20035;-85
2023/08/12 03:20:12;;;;;;;24.35;15.10;;;21.90;99.90;;;;;;4946380;28;20032;-84
2023/08/12 03:22:40;;;;;;;22.48;14.70;;;21.90;99.90;;;;;;4934659;28;20487;-85
2023/08/12 03:25:09;;;;;;;23.67;15.18;;;21.90;99.90;;;;;;4942174;28;20027;-85
2023/08/12 03:27:35;;;;;;;24.27;15.23;;;22.00;99.90;;;;;;4925831;29;20030;-85
2023/08/12 03:30:00;;;;;;;24.13;16.20;;;21.90;99.90;;;;;;4940208;28;20046;-85
2023/08/12 03:32:26;;;;;;;32.63;15.82;;;21.90;99.90;;;;;;4942718;28;20058;-85
2023/08/12 03:34:52;;;;;;;27.60;16.45;;;21.80;99.90;;;;;;4931554;28;20043;-85
2023/08/12 03:37:18;;;;;;;30.05;16.55;;;21.70;99.90;;;;;;4933586;28;20063;-85
2023/08/12 03:39:44;;;;;;;27.40;16.25;;;21.70;99.90;;;;;;4943148;28;20031;-84
2023/08/12 03:42:10;;;;;;;32.50;17.45;;;21.70;99.90;;;;;;4942295;28;20114;-85
2023/08/12 03:44:36;;;;;;;30.08;16.95;;;21.70;99.90;;;;;;4932839;28;20428;-85
2023/08/12 03:47:01;;;;;;;32.53;17.23;;;21.80;99.90;;;;;;4942884;28;20031;-85
2023/08/12 03:49:27;;;;;;;34.05;17.27;;;21.80;99.90;;;;;;4921346;28;20059;-85
2023/08/12 03:51:52;;;;;;;32.00;17.40;;;21.90;99.90;;;;;;4928279;28;20475;-85
2023/08/12 03:54:18;;;;;;;31.90;18.20;;;21.90;99.90;;;;;;4944672;28;20547;-84
2023/08/12 03:56:44;;;;;;;23.92;17.52;;;21.90;99.90;;;;;;4926617;28;20031;-85
2023/08/12 03:59:09;;;;;;;31.63;18.95;;;21.90;99.90;;;;;;4939747;28;20435;-85
2023/08/12 04:01:36;;;;;;;27.77;17.73;;;22.00;99.90;;;;;;4942551;28;20531;-85
2023/08/12 04:04:02;;;;;;;30.65;18.70;;;22.00;99.90;;;;;;4941967;28;20042;-86
2023/08/12 04:06:27;;;;;;;30.60;19.67;;;21.90;99.90;;;;;;4938680;28;20289;-85
2023/08/12 04:08:53;;;;;;;36.60;20.45;;;21.90;99.90;;;;;;4931241;28;20027;-82
2023/08/12 04:13:56;;;;;;;40.35;21.23;;;21.80;99.90;;;;;;5126069;23;20450;-85
2023/08/12 04:16:21;;;;;;;40.17;20.48;;;21.80;99.90;;;;;;4926740;29;20025;-85
2023/08/12 04:18:48;;;;;;;38.85;20.20;;;21.80;99.90;;;;;;4917103;29;20102;-85
2023/08/12 04:21:13;;;;;;;33.83;21.25;;;21.70;99.90;;;;;;4921077;29;20667;-81
2023/08/12 04:23:39;;;;;;;34.83;20.50;;;21.70;99.90;;;;;;4918088;29;20130;-82
2023/08/12 04:26:04;;;;;;;32.25;20.67;;;21.80;99.90;;;;;;4920338;29;20032;-82
2023/08/12 04:28:30;;;;;;;37.55;21.65;;;21.70;99.90;;;;;;4920378;29;20035;-82
2023/08/12 04:30:56;;;;;;;38.33;22.48;;;21.70;99.90;;;;;;4923134;29;20481;-82
2023/08/12 04:33:22;;;;;;;37.13;21.98;;;21.60;99.90;;;;;;4922615;29;20027;-81
2023/08/12 04:35:48;;;;;;;40.67;24.38;;;21.80;99.90;;;;;;4919903;29;20024;-81
2023/08/12 04:38:16;;;;;;;43.15;24.90;;;21.70;99.90;;;;;;4917901;29;20091;-81
2023/08/12 04:40:42;;;;;;;45.40;24.15;;;21.70;99.90;;;;;;4920093;29;20031;-81
2023/08/12 04:43:13;;;;;;;39.88;23.67;;;21.70;99.90;;;;;;4915750;29;20035;-81
2023/08/12 04:45:38;;;;;;;44.60;24.15;;;21.80;99.90;;;;;;4921226;29;20066;-81
2023/08/12 04:48:05;;;;;;;42.67;25.08;;;21.70;99.90;;;;;;4914272;29;20059;-82
2023/08/12 04:50:31;;;;;;;48.03;24.15;;;21.70;99.90;;;;;;4903322;29;20028;-81
2023/08/12 04:52:57;;;;;;;40.28;24.30;;;21.70;99.90;;;;;;4908459;29;20662;-81
2023/08/12 04:55:25;;;;;;;43.00;24.30;;;21.70;99.90;;;;;;4919162;29;20020;-82
2023/08/12 04:57:50;;;;;;;46.22;24.35;;;21.70;99.90;;;;;;4921540;29;20396;-82
2023/08/12 05:00:17;;;;;;;43.30;23.55;;;21.80;99.90;;;;;;4918909;29;20031;-82
2023/08/12 05:02:47;;;;;;;44.05;23.98;;;21.80;99.90;;;;;;4910122;29;20123;-82
2023/08/12 05:05:15;;;;;;;44.03;23.13;;;21.80;99.90;;;;;;4919993;29;20027;-82
2023/08/12 05:07:45;;;;;;;47.88;23.63;;;21.90;99.90;;;;;;4917992;29;20031;-82
2023/08/12 05:10:10;;;;;;;44.10;23.17;;;21.90;99.90;;;;;;4916977;29;20027;-82
2023/08/12 05:12:36;;;;;;;40.80;23.20;;;22.00;99.90;;;;;;4922259;29;20030;-83
2023/08/12 05:15:02;;;;;;;43.97;23.15;;;22.10;99.90;;;;;;4911434;29;20024;-82
2023/08/12 05:17:28;;;;;;;53.65;25.27;;;22.10;99.90;;;;;;4920836;29;20071;-82
2023/08/12 05:19:53;;;;;;;52.60;25.30;;;22.00;99.90;;;;;;4912302;29;20066;-82
2023/08/12 05:22:19;;;;;;;53.13;24.92;;;22.10;99.90;;;;;;4905617;29;20028;-83
2023/08/12 05:24:47;;;;;;;45.35;24.48;;;22.10;99.90;;;;;;4922488;29;20032;-82
2023/08/12 05:27:12;;;;;;;58.53;25.63;;;22.10;99.90;;;;;;4920447;29;20044;-82
2023/08/12 05:29:38;;;;;;;53.17;25.52;;;22.10;99.90;;;;;;4919242;29;20060;-82
2023/08/12 05:32:04;;;;;;;54.33;26.08;;;22.10;99.90;;;;;;4923496;29;20038;-82
2023/08/12 05:34:29;;;;;;;46.22;24.73;;;22.10;99.90;;;;;;4922158;29;20559;-82
2023/08/12 05:36:55;;;;;;;46.17;25.55;;;22.10;99.90;;;;;;4921222;29;20020;-82
2023/08/12 05:39:21;;;;;;;48.55;24.33;;;22.10;99.90;;;;;;4918014;29;20703;-81
2023/08/12 05:41:46;;;;;;;48.78;24.73;;;22.20;99.90;;;;;;4918228;29;21778;-81
2023/08/12 05:44:12;;;;;;;46.70;23.05;;;22.20;99.90;;;;;;4915941;29;20480;-82
2023/08/12 05:46:38;;;;;;;48.95;24.25;;;22.20;99.90;;;;;;4911410;29;20083;-82
2023/08/12 05:49:03;;;;;;;44.78;21.98;;;22.20;99.90;;;;;;4917808;29;20036;-83
2023/08/12 05:51:31;;;;;;;38.25;20.33;;;22.20;99.90;;;;;;4911199;29;20028;-82
2023/08/12 05:53:57;;;;;;;40.15;21.48;;;22.10;99.90;;;;;;4918410;29;20032;-81
2023/08/12 05:56:23;;;;;;;43.90;22.10;;;22.20;99.90;;;;;;4921121;29;20054;-82
2023/08/12 05:58:50;;;;;;;35.17;19.30;;;22.20;99.90;;;;;;4921257;29;20532;-81
2023/08/12 06:01:16;;;;;;;35.85;19.45;;;22.10;99.90;;;;;;4921685;29;20034;-81
2023/08/12 06:03:42;;;;;;;38.05;19.77;;;22.10;99.90;;;;;;4921165;29;20404;-81
2023/08/12 06:06:08;;;;;;;38.88;19.98;;;22.10;99.90;;;;;;4910613;29;20020;-80
2023/08/12 06:08:34;;;;;;;38.83;18.45;;;22.20;99.90;;;;;;4919807;29;20051;-82
2023/08/12 06:10:59;;;;;;;36.90;18.27;;;22.20;99.90;;;;;;4922367;29;20039;-80
2023/08/12 06:13:25;;;;;;;32.38;17.95;;;22.20;99.90;;;;;;4916736;29;20091;-79
2023/08/12 06:15:51;;;;;;;33.22;17.80;;;22.10;99.90;;;;;;4922323;29;20026;-79
2023/08/12 06:18:16;;;;;;;37.20;18.50;;;22.10;99.90;;;;;;4926626;29;20364;-79
2023/08/12 06:20:42;;;;;;;38.10;18.05;;;22.00;99.90;;;;;;4914141;29;20396;-79
2023/08/12 06:23:07;;;;;;;36.15;19.02;;;22.10;99.90;;;;;;4910523;29;20023;-79
2023/08/12 06:25:33;;;;;;;39.97;17.30;;;22.10;99.90;;;;;;4922265;29;20027;-80
2023/08/12 06:27:59;;;;;;;37.70;17.73;;;22.00;99.90;;;;;;4903174;29;20032;-80
2023/08/12 06:30:24;;;;;;;33.35;17.77;;;22.00;99.90;;;;;;4919295;29;20038;-79
2023/08/12 06:32:50;;;;;;;31.65;17.05;;;21.90;99.90;;;;;;4923188;29;20083;-80
2023/08/12 06:35:16;;;;;;;33.20;16.90;;;21.90;99.90;;;;;;4915386;29;20495;-80
2023/08/12 06:37:44;;;;;;;31.88;17.27;;;22.00;99.90;;;;;;4922582;29;20036;-79
2023/08/12 06:40:10;;;;;;;38.47;17.83;;;22.00;99.90;;;;;;4916872;29;20695;-79
2023/08/12 06:42:35;;;;;;;35.47;18.00;;;22.10;99.90;;;;;;4904782;29;20055;-79
2023/08/12 06:45:03;;;;;;;36.63;18.80;;;22.10;99.90;;;;;;4919525;29;20071;-80
2023/08/12 06:47:29;;;;;;;32.75;18.33;;;22.10;99.90;;;;;;4909995;29;20784;-81
2023/08/12 06:49:55;;;;;;;33.85;19.13;;;22.10;99.90;;;;;;4920338;29;20028;-81
2023/08/12 06:52:23;;;;;;;38.92;18.40;;;22.10;99.90;;;;;;4919414;29;20028;-81
2023/08/12 06:54:49;;;;;;;30.60;18.35;;;22.10;99.90;;;;;;4921734;29;20102;-81
2023/08/12 06:57:15;;;;;;;32.38;17.67;;;22.00;99.90;;;;;;4918155;29;20489;-81
2023/08/12 06:59:40;;;;;;;30.10;17.58;;;22.00;99.90;;;;;;4917120;29;20473;-81
2023/08/12 07:02:07;;;;;;;29.65;17.10;;;22.00;99.90;;;;;;4922107;29;20114;-81
2023/08/12 07:04:32;;;;;;;30.17;16.75;;;21.90;99.90;;;;;;4916966;29;20028;-82
2023/08/12 07:06:59;;;;;;;29.80;15.75;;;21.80;99.90;;;;;;4910997;29;20497;-81
2023/08/12 07:09:25;;;;;;;30.75;15.18;;;21.80;99.90;;;;;;4920076;29;20039;-80
2023/08/12 07:11:51;;;;;;;27.67;15.10;;;21.80;99.90;;;;;;4920162;29;20036;-80
2023/08/12 07:14:16;;;;;;;28.05;14.27;;;21.80;99.90;;;;;;4922126;29;20063;-79
2023/08/12 07:16:42;;;;;;;22.67;14.43;;;21.80;99.90;;;;;;4917600;29;20484;-80
2023/08/12 07:19:07;;;;;;;22.85;14.98;;;21.90;99.90;;;;;;4908100;29;20032;-79
2023/08/12 07:21:33;;;;;;;25.40;14.90;;;21.90;99.90;;;;;;4919867;29;20123;-80
2023/08/12 07:24:01;;;;;;;22.00;14.45;;;21.90;99.90;;;;;;4915704;29;20511;-80
2023/08/12 07:26:30;;;;;;;17.83;12.23;;;21.80;99.90;;;;;;4910782;29;20027;-80
2023/08/12 07:28:56;;;;;;;19.33;10.63;;;21.70;99.90;;;;;;4919870;29;20480;-79
2023/08/12 07:31:22;;;;;;;19.48;11.88;;;21.70;99.90;;;;;;4921640;29;20535;-79
2023/08/12 07:33:47;;;;;;;14.90;11.75;;;21.60;99.90;;;;;;4920219;29;20036;-80
2023/08/12 07:36:13;;;;;;;15.02;11.07;;;21.60;99.90;;;;;;4919519;29;20052;-79
2023/08/12 07:38:39;;;;;;;17.55;10.65;;;21.60;99.90;;;;;;4924132;29;20090;-80
2023/08/12 07:41:06;;;;;;;15.00;10.73;;;21.60;99.90;;;;;;4921968;29;20112;-81
2023/08/12 07:43:32;;;;;;;15.35;10.73;;;21.60;99.90;;;;;;4914197;29;20500;-80
2023/08/12 07:45:58;;;;;;;15.57;11.57;;;21.60;99.90;;;;;;4920570;29;20035;-80
2023/08/12 07:48:24;;;;;;;16.58;12.32;;;21.60;99.90;;;;;;4918134;29;20024;-81
2023/08/12 07:50:59;;;;;;;19.92;11.15;;;21.60;99.90;;;;;;4923727;29;20055;-80
2023/08/12 07:53:26;;;;;;;20.20;12.00;;;21.70;99.90;;;;;;4923554;29;20095;-80
2023/08/12 07:55:52;;;;;;;15.60;12.63;;;21.60;99.90;;;;;;4923878;29;20087;-83
2023/08/12 07:58:18;;;;;;;15.65;11.43;;;21.70;99.90;;;;;;4922441;29;20043;-82
2023/08/12 08:00:43;;;;;;;14.23;11.15;;;21.70;99.90;;;;;;4922213;29;20028;-82
2023/08/12 08:03:11;;;;;;;17.00;11.60;;;21.70;99.90;;;;;;4905029;29;20024;-82
2023/08/12 08:05:41;;;;;;;12.32;10.40;;;21.70;99.90;;;;;;4924152;29;20036;-83
2023/08/12 08:08:06;;;;;;;13.35;10.57;;;21.60;99.90;;;;;;4905871;29;20039;-83
2023/08/12 08:10:44;;;;;;;12.77;10.60;;;21.50;99.90;;;;;;4922239;29;20536;-85
2023/08/12 08:13:12;;;;;;;10.95;9.73;;;21.60;99.90;;;;;;4905483;29;20039;-85
2023/08/12 08:15:38;;;;;;;11.20;9.52;;;21.50;99.90;;;;;;4906633;29;20028;-85
2023/08/12 08:18:04;;;;;;;11.23;9.35;;;21.50;99.90;;;;;;4921627;29;20048;-83
2023/08/12 08:20:30;;;;;;;11.90;8.68;;;21.40;99.90;;;;;;4924061;29;20030;-86
2023/08/12 08:22:56;;;;;;;10.90;8.40;;;21.40;99.90;;;;;;4923445;29;20079;-85
2023/08/12 08:25:22;;;;;;;7.65;6.65;;;21.40;99.90;;;;;;4922794;29;20020;-84
2023/08/12 08:27:48;;;;;;;7.40;6.28;;;21.40;99.90;;;;;;4923633;29;20023;-87
2023/08/12 08:30:13;;;;;;;6.55;5.65;;;21.40;99.90;;;;;;4909032;29;20374;-88
2023/08/12 08:32:41;;;;;;;7.88;6.07;;;21.40;99.90;;;;;;4924113;29;20382;-88
2023/08/12 08:35:09;;;;;;;5.60;5.00;;;21.40;99.90;;;;;;4906092;29;20540;-87
2023/08/12 08:37:37;;;;;;;6.85;4.75;;;21.30;99.90;;;;;;4915955;29;20027;-88
2023/08/12 08:40:03;;;;;;;8.52;4.00;;;21.50;99.90;;;;;;4913226;29;20051;-87
2023/08/12 08:42:29;;;;;;;4.15;3.72;;;21.50;99.90;;;;;;4924573;29;20456;-87
2023/08/12 08:44:59;;;;;;;3.53;3.25;;;21.40;99.90;;;;;;4907889;29;20028;-86
2023/08/12 08:47:26;;;;;;;4.07;3.67;;;21.40;99.90;;;;;;4911655;29;20059;-86
2023/08/12 08:49:56;;;;;;;3.47;3.28;;;21.40;99.90;;;;;;4921517;29;20074;-86
2023/08/12 08:52:23;;;;;;;3.40;3.10;;;21.50;99.90;;;;;;4919516;29;20115;-83
2023/08/12 08:54:50;;;;;;;3.45;3.22;;;21.40;99.90;;;;;;4906676;29;20055;-86
2023/08/12 08:57:16;;;;;;;4.40;2.67;;;21.50;99.90;;;;;;4909421;29;20040;-85
2023/08/12 08:59:42;;;;;;;8.90;2.88;;;21.60;99.90;;;;;;4911238;29;20546;-82
2023/08/12 09:02:17;;;;;;;3.55;2.63;;;21.60;99.90;;;;;;4905521;29;20032;-84
2023/08/12 09:04:47;;;;;;;3.55;2.65;;;21.60;99.90;;;;;;4921814;29;20420;-84
2023/08/12 09:07:16;;;;;;;2.13;2.03;;;21.70;99.90;;;;;;4921245;29;20079;-84
2023/08/12 09:09:47;;;;;;;2.50;2.40;;;21.60;99.90;;;;;;4913375;29;20938;-83
2023/08/12 09:12:15;;;;;;;2.85;2.17;;;21.60;99.90;;;;;;4904189;29;20556;-83
2023/08/12 09:14:41;;;;;;;3.25;2.95;;;21.60;99.90;;;;;;4906299;29;20036;-83
2023/08/12 09:17:07;;;;;;;4.00;2.53;;;21.70;99.90;;;;;;4905908;29;20024;-83
2023/08/12 09:19:32;;;;;;;2.58;2.15;;;21.70;99.90;;;;;;4925516;29;20115;-84
2023/08/12 09:21:58;;;;;;;5.38;2.28;;;21.80;99.90;;;;;;4917609;29;20024;-84
2023/08/12 09:24:25;;;;;;;5.30;2.25;;;21.90;99.90;;;;;;4904037;29;20035;-83
2023/08/12 09:26:55;;;;;;;2.25;2.05;;;21.90;99.90;;;;;;4922763;29;20492;-83
2023/08/12 09:29:31;;;;;;;3.03;2.30;;;22.10;99.90;;;;;;4909589;29;20040;-84
2023/08/12 09:32:11;;;;;;;2.13;1.50;;;22.00;99.90;;;;;;4918898;29;20076;-83
2023/08/12 09:34:38;;;;;;;2.95;2.17;;;22.10;99.90;;;;;;4904860;29;20027;-83
2023/08/12 09:37:03;;;;;;;3.53;2.10;;;22.10;99.90;;;;;;4910322;29;20031;-84
2023/08/12 09:39:33;;;;;;;2.78;1.90;;;22.10;99.90;;;;;;4908244;29;20028;-83
2023/08/12 09:41:59;;;;;;;3.05;1.75;;;22.10;99.90;;;;;;4919152;29;20024;-84
2023/08/12 09:44:30;;;;;;;2.22;1.85;;;22.10;99.90;;;;;;4921591;29;20034;-84
2023/08/12 09:46:59;;;;;;;2.17;1.98;;;22.30;99.90;;;;;;4904988;29;20039;-84
2023/08/12 09:49:24;;;;;;;2.88;1.60;;;22.40;99.90;;;;;;4919078;29;20025;-84
2023/08/12 09:51:51;;;;;;;3.67;2.58;;;22.40;99.90;;;;;;4921125;29;20037;-84
2023/08/12 09:54:17;;;;;;;2.92;1.90;;;22.40;99.90;;;;;;4922342;29;20024;-84
2023/08/12 09:56:48;;;;;;;2.28;1.63;;;22.50;99.90;;;;;;4915133;29;20038;-83
2023/08/12 09:59:22;;;;;;;4.20;1.92;;;22.50;99.90;;;;;;4918774;29;20040;-84
2023/08/12 10:01:53;;;;;;;1.98;1.88;;;22.40;99.90;;;;;;4903342;29;20031;-90
2023/08/12 10:04:22;;;;;;;3.40;1.52;;;22.50;99.90;;;;;;4921855;29;20516;-83
2023/08/12 10:06:49;;;;;;;2.58;2.20;;;22.60;99.90;;;;;;4924784;29;20102;-89
2023/08/12 10:09:18;;;;;;;2.17;2.05;;;22.60;99.90;;;;;;4907957;29;20096;-85
2023/08/12 10:11:45;;;;;;;2.50;2.13;;;22.70;99.90;;;;;;4902851;29;20912;-83
2023/08/12 10:14:12;;;;;;;5.50;2.15;;;22.60;99.90;;;;;;4910698;29;20024;-81
2023/08/12 10:16:39;;;;;;;6.97;2.53;;;22.60;99.90;;;;;;4920713;29;20626;-83
2023/08/12 10:19:05;;;;;;;4.78;1.95;;;22.60;99.90;;;;;;4922701;29;20119;-83
2023/08/12 10:21:32;;;;;;;2.40;2.22;;;22.60;99.90;;;;;;4913611;29;20055;-83
2023/08/12 10:23:59;;;;;;;5.97;2.65;;;22.50;99.90;;;;;;4899831;29;20114;-82
2023/08/12 10:26:25;;;;;;;4.93;2.25;;;22.60;99.90;;;;;;4914293;29;20528;-81
2023/08/12 10:28:51;;;;;;;3.17;2.58;;;22.60;99.90;;;;;;4913317;29;20177;-83
2023/08/12 10:31:18;;;;;;;3.08;2.53;;;22.50;99.90;;;;;;4919566;29;20495;-83
2023/08/12 10:33:44;;;;;;;2.85;2.60;;;22.50;99.90;;;;;;4904875;29;20118;-83
2023/08/12 10:36:10;;;;;;;33.28;18.13;;;22.70;99.90;;;;;;4919277;29;20506;-82
2023/08/12 10:38:36;;;;;;;4.90;3.17;;;22.70;99.90;;;;;;4919951;29;20047;-81
2023/08/12 10:41:35;;;;;;;3.08;2.88;;;22.80;99.90;;;;;;4920862;29;20039;-84
2023/08/12 10:44:07;;;;;;;3.70;3.40;;;22.90;99.90;;;;;;4906595;29;20153;-83
2023/08/12 10:46:35;;;;;;;8.43;3.30;;;23.00;99.90;;;;;;4902204;29;20039;-83
2023/08/12 10:49:09;;;;;;;168.30;97.25;;;23.00;99.90;;;;;;4920476;29;20071;-83
2023/08/12 10:51:46;;;;;;;3.58;3.17;;;23.10;99.90;;;;;;4919477;29;20467;-83
2023/08/12 10:54:33;;;;;;;3.22;3.03;;;22.80;99.90;;;;;;4921308;29;20510;-84
2023/08/12 10:57:14;;;;;;;3.83;3.30;;;23.10;99.90;;;;;;4922027;29;20032;-83
2023/08/12 10:59:48;;;;;;;3.10;2.90;;;23.20;99.90;;;;;;4922204;29;20063;-86
2023/08/12 11:02:26;;;;;;;2.60;2.40;;;23.40;99.90;;;;;;4920165;29;20067;-86
2023/08/12 11:04:57;;;;;;;2.20;2.10;;;23.70;99.90;;;;;;4922092;29;20124;-86
2023/08/12 11:07:49;;;;;;;2.20;2.10;;;23.80;99.90;;;;;;4922246;29;20042;-85
2023/08/12 11:10:26;;;;;;;2.60;2.40;;;24.00;99.90;;;;;;4906587;29;20028;-84
2023/08/12 11:12:52;;;;;;;2.55;2.40;;;23.80;99.90;;;;;;4914723;29;20135;-87
2023/08/12 11:15:22;;;;;;;2.85;2.65;;;24.00;99.90;;;;;;4903968;29;20087;-95
2023/08/12 11:17:48;;;;;;;2.75;2.25;;;24.00;99.90;;;;;;4906191;29;20036;-84
2023/08/12 11:20:14;;;;;;;4.20;2.72;;;24.00;99.90;;;;;;4911437;29;20332;-85
2023/08/12 11:22:41;;;;;;;2.58;2.47;;;24.10;99.90;;;;;;4906417;29;20044;-85
2023/08/12 11:25:09;;;;;;;4.13;2.70;;;24.20;99.90;;;;;;4917193;29;20957;-90
2023/08/12 11:27:42;;;;;;;3.08;2.88;;;24.20;99.90;;;;;;4916125;29;20457;-85
2023/08/12 11:30:14;;;;;;;3.08;2.72;;;24.20;99.90;;;;;;4912736;29;20465;-85
2023/08/12 11:32:44;;;;;;;3.97;2.70;;;24.30;99.90;;;;;;4911792;29;20017;-85
2023/08/12 11:35:12;;;;;;;3.13;2.92;;;24.30;99.90;;;;;;4911445;29;20044;-84
2023/08/12 11:37:45;;;;;;;3.10;2.90;;;24.30;99.90;;;;;;4900258;29;20512;-85
2023/08/12 11:40:16;;;;;;;3.35;3.05;;;24.30;99.90;;;;;;4904280;29;20032;-85
2023/08/12 11:42:50;;;;;;;2.40;2.20;;;24.50;99.90;;;;;;4911137;29;20080;-85
2023/08/12 11:45:18;;;;;;;2.65;2.55;;;24.70;99.90;;;;;;4887906;29;20036;-83
2023/08/12 11:47:44;;;;;;;2.67;2.58;;;24.50;99.90;;;;;;4911562;29;20049;-84
2023/08/12 11:50:12;;;;;;;3.75;2.60;;;24.60;99.90;;;;;;4913989;29;20035;-85
2023/08/12 11:52:38;;;;;;;3.28;2.33;;;24.70;99.90;;;;;;4912993;29;20019;-85
2023/08/12 11:55:06;;;;;;;2.38;2.20;;;24.90;99.90;;;;;;4913994;29;20067;-85
2023/08/12 11:57:34;;;;;;;2.80;2.45;;;25.10;99.90;;;;;;4889808;29;20369;-86
2023/08/12 12:00:08;;;;;;;2.05;1.95;;;25.30;99.90;;;;;;4886941;29;20032;-85
2023/08/12 12:02:48;;;;;;;2.72;2.13;;;25.40;99.90;;;;;;4885280;29;20060;-84
2023/08/12 12:05:14;;;;;;;4.53;2.70;;;25.60;99.90;;;;;;4909814;29;20528;-83
2023/08/12 12:07:40;;;;;;;2.47;2.38;;;25.50;99.90;;;;;;4914961;29;20103;-83
2023/08/12 12:10:06;;;;;;;2.40;2.30;;;25.60;99.80;;;;;;4911569;29;20104;-83
2023/08/12 12:12:35;;;;;;;2.38;2.28;;;25.40;99.90;;;;;;4914937;29;20519;-84
2023/08/12 12:15:01;;;;;;;2.50;2.35;;;25.40;99.90;;;;;;4916426;29;20023;-84
2023/08/12 12:17:27;;;;;;;3.10;2.30;;;25.40;99.90;;;;;;4918130;29;20036;-84
2023/08/12 12:19:57;;;;;;;1.60;1.50;;;25.40;99.90;;;;;;4906044;29;20034;-84
2023/08/12 12:22:33;;;;;;;1.50;1.40;;;25.30;99.90;;;;;;4889940;29;20023;-84
2023/08/12 12:25:07;;;;;;;1.08;1.02;;;25.10;99.90;;;;;;4913926;29;20160;-84
2023/08/12 12:27:33;;;;;;;1.73;1.63;;;25.20;99.10;;;;;;4897037;29;20056;-84
2023/08/12 12:29:59;;;;;;;1.45;1.30;;;25.20;99.50;;;;;;4919626;29;20038;-88
2023/08/12 12:32:26;;;;;;;1.15;1.15;;;25.40;99.30;;;;;;4916577;29;20036;-87
2023/08/12 12:34:52;;;;;;;1.27;1.27;;;25.40;99.30;;;;;;4904466;29;20032;-86
2023/08/12 12:37:18;;;;;;;1.50;1.40;;;25.50;99.30;;;;;;4887153;29;20500;-84